sensor_id;sensor_type;location;lat;lon;timestamp;pressure;altitude;pressure_sealevel;temperature;humidity
80124;BME280;69433;48.642;9.142;2023-05-21T00:01:37;96610.63;;;23.34;42.19
80124;BME280;69433;48.642;9.142;2023-05-21T00:04:07;96609.44;;;23.35;42.26
80124;BME280;69433;48.642;9.142;2023-05-21T00:06:33;96609.44;;;23.35;42.02
80124;BME280;69433;48.642;9.142;2023-05-21T00:09:03;96609.44;;;23.35;42.05
80124;BME280;69433;48.642;9.142;2023-05-21T00:11:28;96602.16;;;23.36;42.23
80124;BME280;69433;48.642;9.142;2023-05-21T00:13:56;96599.47;;;23.36;42.41
80124;BME280;69433;48.642;9.142;2023-05-21T00:16:21;96596.03;;;23.35;42.19
80124;BME280;69433;48.642;9.142;2023-05-21T00:18:47;96604.09;;;23.35;41.88
80124;BME280;69433;48.642;9.142;2023-05-21T00:21:18;96605.56;;;23.36;42.33
80124;BME280;69433;48.642;9.142;2023-05-21T00:23:47;96608.69;;;23.35;42.19
80124;BME280;69433;48.642;9.142;2023-05-21T00:26:12;96599.13;;;23.34;42.26
80124;BME280;69433;48.642;9.142;2023-05-21T00:28:38;96594.84;;;23.36;42.28
80124;BME280;69433;48.642;9.142;2023-05-21T00:31:03;96594.13;;;23.36;42.05
80124;BME280;69433;48.642;9.142;2023-05-21T00:33:28;96590.69;;;23.35;42.33
80124;BME280;69433;48.642;9.142;2023-05-21T00:35:55;96590.31;;;23.33;42.13
80124;BME280;69433;48.642;9.142;2023-05-21T00:38:22;96588.81;;;23.32;42.35
80124;BME280;69433;48.642;9.142;2023-05-21T00:40:47;96577.31;;;23.31;42.20
80124;BME280;69433;48.642;9.142;2023-05-21T00:43:13;96578.84;;;23.33;42.21
80124;BME280;69433;48.642;9.142;2023-05-21T00:45:39;96583.44;;;23.32;42.17
80124;BME280;69433;48.642;9.142;2023-05-21T00:48:07;96578.91;;;23.29;42.08
80124;BME280;69433;48.642;9.142;2023-05-21T00:50:33;96574.31;;;23.29;42.36
80124;BME280;69433;48.642;9.142;2023-05-21T00:53:00;96580.44;;;23.30;42.03
80124;BME280;69433;48.642;9.142;2023-05-21T00:55:25;96573.88;;;23.31;42.22
80124;BME280;69433;48.642;9.142;2023-05-21T00:57:50;96570.44;;;23.30;42.29
80124;BME280;69433;48.642;9.142;2023-05-21T01:00:16;96570.03;;;23.32;42.08
80124;BME280;69433;48.642;9.142;2023-05-21T01:02:41;96575.41;;;23.32;42.28
80124;BME280;69433;48.642;9.142;2023-05-21T01:05:08;96573.88;;;23.31;42.20
80124;BME280;69433;48.642;9.142;2023-05-21T01:07:36;96566.59;;;23.31;42.22
80124;BME280;69433;48.642;9.142;2023-05-21T01:10:04;96567.00;;;23.30;42.09
80124;BME280;69433;48.642;9.142;2023-05-21T01:12:34;96577.00;;;23.29;42.01
80124;BME280;69433;48.642;9.142;2023-05-21T01:15:02;96558.63;;;23.28;42.25
80124;BME280;69433;48.642;9.142;2023-05-21T01:17:28;96562.81;;;23.29;42.19
80124;BME280;69433;48.642;9.142;2023-05-21T01:19:55;96563.56;;;23.29;42.17
80124;BME280;69433;48.642;9.142;2023-05-21T01:22:22;96566.66;;;23.28;42.09
80124;BME280;69433;48.642;9.142;2023-05-21T01:24:49;96559.78;;;23.27;42.11
80124;BME280;69433;48.642;9.142;2023-05-21T01:27:15;96560.13;;;23.29;42.29
80124;BME280;69433;48.642;9.142;2023-05-21T01:29:45;96555.94;;;23.28;42.24
80124;BME280;69433;48.642;9.142;2023-05-21T01:32:41;96555.94;;;23.28;42.11
80124;BME280;69433;48.642;9.142;2023-05-21T01:35:12;96555.28;;;23.24;42.33
80124;BME280;69433;48.642;9.142;2023-05-21T01:37:57;96563.69;;;23.26;42.27
80124;BME280;69433;48.642;9.142;2023-05-21T01:40:35;96563.34;;;23.24;42.14
80124;BME280;69433;48.642;9.142;2023-05-21T01:43:04;96554.94;;;23.22;42.04
80124;BME280;69433;48.642;9.142;2023-05-21T01:45:32;96558.31;;;23.26;42.02
80124;BME280;69433;48.642;9.142;2023-05-21T01:48:05;96550.34;;;23.22;42.00
80124;BME280;69433;48.642;9.142;2023-05-21T01:50:32;96550.75;;;23.21;42.07
80124;BME280;69433;48.642;9.142;2023-05-21T01:52:58;96554.53;;;23.23;42.03
80124;BME280;69433;48.642;9.142;2023-05-21T01:55:28;96548.06;;;23.21;42.27
80124;BME280;69433;48.642;9.142;2023-05-21T01:57:55;96543.88;;;23.20;42.35
80124;BME280;69433;48.642;9.142;2023-05-21T02:00:23;96545.03;;;23.19;42.49
80124;BME280;69433;48.642;9.142;2023-05-21T02:02:49;96540.19;;;23.14;42.25
80124;BME280;69433;48.642;9.142;2023-05-21T02:05:15;96543.97;;;23.16;42.33
80124;BME280;69433;48.642;9.142;2023-05-21T02:07:40;96545.88;;;23.16;42.52
80124;BME280;69433;48.642;9.142;2023-05-21T02:10:08;96545.44;;;23.17;42.36
80124;BME280;69433;48.642;9.142;2023-05-21T02:12:33;96550.06;;;23.17;42.31
80124;BME280;69433;48.642;9.142;2023-05-21T02:14:59;96549.22;;;23.20;42.48
80124;BME280;69433;48.642;9.142;2023-05-21T02:17:24;96544.63;;;23.20;42.44
80124;BME280;69433;48.642;9.142;2023-05-21T02:19:59;96549.22;;;23.20;42.14
80124;BME280;69433;48.642;9.142;2023-05-21T02:22:45;96546.22;;;23.18;42.37
80124;BME280;69433;48.642;9.142;2023-05-21T02:25:13;96548.56;;;23.16;42.24
80124;BME280;69433;48.642;9.142;2023-05-21T02:27:39;96545.88;;;23.16;42.20
80124;BME280;69433;48.642;9.142;2023-05-21T02:30:10;96541.69;;;23.15;42.37
80124;BME280;69433;48.642;9.142;2023-05-21T02:32:35;96546.31;;;23.14;42.21
80124;BME280;69433;48.642;9.142;2023-05-21T02:35:02;96537.50;;;23.14;42.20
80124;BME280;69433;48.642;9.142;2023-05-21T02:37:30;96534.06;;;23.13;42.38
80124;BME280;69433;48.642;9.142;2023-05-21T02:39:59;96540.53;;;23.16;42.41
80124;BME280;69433;48.642;9.142;2023-05-21T02:42:25;96539.44;;;23.13;42.20
80124;BME280;69433;48.642;9.142;2023-05-21T02:44:50;96534.81;;;23.14;42.13
80124;BME280;69433;48.642;9.142;2023-05-21T02:47:17;96534.81;;;23.14;42.20
80124;BME280;69433;48.642;9.142;2023-05-21T02:49:42;96532.91;;;23.14;42.23
80124;BME280;69433;48.642;9.142;2023-05-21T02:52:09;96524.91;;;23.11;42.30
80124;BME280;69433;48.642;9.142;2023-05-21T02:54:34;96527.94;;;23.13;42.29
80124;BME280;69433;48.642;9.142;2023-05-21T02:56:59;96528.69;;;23.13;42.13
80124;BME280;69433;48.642;9.142;2023-05-21T02:59:25;96533.31;;;23.13;42.20
80124;BME280;69433;48.642;9.142;2023-05-21T03:01:50;96526.44;;;23.12;42.20
80124;BME280;69433;48.642;9.142;2023-05-21T03:04:15;96525.69;;;23.11;42.20
80124;BME280;69433;48.642;9.142;2023-05-21T03:06:41;96524.91;;;23.11;42.15
80124;BME280;69433;48.642;9.142;2023-05-21T03:09:07;96520.31;;;23.11;42.12
80124;BME280;69433;48.642;9.142;2023-05-21T03:11:32;96521.91;;;23.09;42.29
80124;BME280;69433;48.642;9.142;2023-05-21T03:14:03;96517.63;;;23.11;42.19
80124;BME280;69433;48.642;9.142;2023-05-21T03:16:30;96522.25;;;23.11;42.12
80124;BME280;69433;48.642;9.142;2023-05-21T03:18:59;96519.56;;;23.11;42.08
80124;BME280;69433;48.642;9.142;2023-05-21T03:21:24;96520.31;;;23.11;42.16
80124;BME280;69433;48.642;9.142;2023-05-21T03:23:53;96529.53;;;23.10;42.27
80124;BME280;69433;48.642;9.142;2023-05-21T03:26:22;96518.03;;;23.10;42.29
80124;BME280;69433;48.642;9.142;2023-05-21T03:28:48;96519.56;;;23.11;42.05
80124;BME280;69433;48.642;9.142;2023-05-21T03:31:14;96516.13;;;23.10;42.19
80124;BME280;69433;48.642;9.142;2023-05-21T03:33:39;96518.38;;;23.12;42.07
80124;BME280;69433;48.642;9.142;2023-05-21T03:36:05;96516.53;;;23.09;42.14
80124;BME280;69433;48.642;9.142;2023-05-21T03:38:31;96519.56;;;23.11;42.09
80124;BME280;69433;48.642;9.142;2023-05-21T03:41:03;96518.81;;;23.10;42.18
80124;BME280;69433;48.642;9.142;2023-05-21T03:43:28;96512.28;;;23.11;42.11
80124;BME280;69433;48.642;9.142;2023-05-21T03:45:54;96515.38;;;23.10;42.12
80124;BME280;69433;48.642;9.142;2023-05-21T03:48:19;96509.59;;;23.11;42.20
80124;BME280;69433;48.642;9.142;2023-05-21T03:50:49;96513.44;;;23.10;42.09
80124;BME280;69433;48.642;9.142;2023-05-21T03:53:15;96516.88;;;23.11;42.12
80124;BME280;69433;48.642;9.142;2023-05-21T03:55:40;96522.25;;;23.11;42.11
80124;BME280;69433;48.642;9.142;2023-05-21T03:58:06;96525.69;;;23.11;42.19
80124;BME280;69433;48.642;9.142;2023-05-21T04:00:31;96526.44;;;23.12;42.24
80124;BME280;69433;48.642;9.142;2023-05-21T04:02:58;96522.25;;;23.11;42.20
80124;BME280;69433;48.642;9.142;2023-05-21T04:05:23;96524.91;;;23.11;42.13
80124;BME280;69433;48.642;9.142;2023-05-21T04:07:49;96529.53;;;23.10;42.06
80124;BME280;69433;48.642;9.142;2023-05-21T04:10:14;96528.78;;;23.10;42.20
80124;BME280;69433;48.642;9.142;2023-05-21T04:12:43;96530.28;;;23.11;42.13
80124;BME280;69433;48.642;9.142;2023-05-21T04:15:08;96531.03;;;23.11;42.12
80124;BME280;69433;48.642;9.142;2023-05-21T04:17:34;96537.97;;;23.09;42.13
80124;BME280;69433;48.642;9.142;2023-05-21T04:19:59;96532.63;;;23.09;42.14
80124;BME280;69433;48.642;9.142;2023-05-21T04:22:24;96543.34;;;23.09;42.08
80124;BME280;69433;48.642;9.142;2023-05-21T04:24:52;96545.72;;;23.07;42.22
80124;BME280;69433;48.642;9.142;2023-05-21T04:27:19;96552.56;;;23.08;42.06
80124;BME280;69433;48.642;9.142;2023-05-21T04:29:48;96552.56;;;23.08;41.87
80124;BME280;69433;48.642;9.142;2023-05-21T04:32:14;96554.94;;;23.06;42.18
80124;BME280;69433;48.642;9.142;2023-05-21T04:34:42;96557.91;;;23.08;42.08
80124;BME280;69433;48.642;9.142;2023-05-21T04:37:07;96563.28;;;23.08;42.04
80124;BME280;69433;48.642;9.142;2023-05-21T04:39:33;96563.28;;;23.08;42.07
80124;BME280;69433;48.642;9.142;2023-05-21T04:41:58;96571.31;;;23.08;42.02
80124;BME280;69433;48.642;9.142;2023-05-21T04:44:24;96574.44;;;23.06;42.14
80124;BME280;69433;48.642;9.142;2023-05-21T04:46:49;96568.34;;;23.06;42.25
80124;BME280;69433;48.642;9.142;2023-05-21T04:49:14;96573.34;;;23.04;42.05
80124;BME280;69433;48.642;9.142;2023-05-21T04:51:40;96572.19;;;23.05;42.01
80124;BME280;69433;48.642;9.142;2023-05-21T04:54:06;96568.34;;;23.06;41.82
80124;BME280;69433;48.642;9.142;2023-05-21T04:56:31;96575.22;;;23.07;42.03
80124;BME280;69433;48.642;9.142;2023-05-21T04:58:56;96571.00;;;23.06;42.01
80124;BME280;69433;48.642;9.142;2023-05-21T05:01:23;96578.28;;;23.05;41.87
80124;BME280;69433;48.642;9.142;2023-05-21T05:03:50;96576.38;;;23.06;41.88
80124;BME280;69433;48.642;9.142;2023-05-21T05:06:15;96581.75;;;23.06;41.97
80124;BME280;69433;48.642;9.142;2023-05-21T05:08:41;96577.53;;;23.05;41.90
80124;BME280;69433;48.642;9.142;2023-05-21T05:11:06;96578.72;;;23.04;42.02
80124;BME280;69433;48.642;9.142;2023-05-21T05:13:33;96573.69;;;23.06;41.75
80124;BME280;69433;48.642;9.142;2023-05-21T05:15:58;96573.34;;;23.04;41.90
80124;BME280;69433;48.642;9.142;2023-05-21T05:18:24;96570.66;;;23.04;41.70
80124;BME280;69433;48.642;9.142;2023-05-21T05:20:50;96577.13;;;23.06;41.80
80124;BME280;69433;48.642;9.142;2023-05-21T05:23:15;96574.00;;;23.08;41.75
80124;BME280;69433;48.642;9.142;2023-05-21T05:25:41;96577.88;;;23.07;41.65
80124;BME280;69433;48.642;9.142;2023-05-21T05:28:06;96579.06;;;23.06;41.86
80124;BME280;69433;48.642;9.142;2023-05-21T05:30:31;96573.25;;;23.07;42.02
80124;BME280;69433;48.642;9.142;2023-05-21T05:32:56;96572.53;;;23.07;41.67
80124;BME280;69433;48.642;9.142;2023-05-21T05:35:22;96568.66;;;23.08;41.81
80124;BME280;69433;48.642;9.142;2023-05-21T05:37:47;96568.66;;;23.08;41.70
80124;BME280;69433;48.642;9.142;2023-05-21T05:40:12;96572.09;;;23.08;41.73
80124;BME280;69433;48.642;9.142;2023-05-21T05:42:37;96574.00;;;23.08;41.67
80124;BME280;69433;48.642;9.142;2023-05-21T05:45:03;96571.75;;;23.06;41.86
80124;BME280;69433;48.642;9.142;2023-05-21T05:47:28;96565.97;;;23.08;41.75
80124;BME280;69433;48.642;9.142;2023-05-21T05:50:05;96579.38;;;23.08;41.99
80124;BME280;69433;48.642;9.142;2023-05-21T05:52:30;96579.38;;;23.08;42.03
80124;BME280;69433;48.642;9.142;2023-05-21T05:54:55;96577.13;;;23.06;41.68
80124;BME280;69433;48.642;9.142;2023-05-21T05:57:21;96574.00;;;23.08;41.91
80124;BME280;69433;48.642;9.142;2023-05-21T05:59:46;96573.25;;;23.07;41.88
80124;BME280;69433;48.642;9.142;2023-05-21T06:02:11;96575.53;;;23.09;41.83
80124;BME280;69433;48.642;9.142;2023-05-21T06:04:36;96578.97;;;23.09;41.86
80124;BME280;69433;48.642;9.142;2023-05-21T06:07:02;96578.53;;;23.11;41.68
80124;BME280;69433;48.642;9.142;2023-05-21T06:09:27;96578.53;;;23.11;41.82
80124;BME280;69433;48.642;9.142;2023-05-21T06:11:53;96576.63;;;23.11;41.66
80124;BME280;69433;48.642;9.142;2023-05-21T06:14:18;96580.13;;;23.08;41.73
80124;BME280;69433;48.642;9.142;2023-05-21T06:16:43;96580.06;;;23.12;41.59
80124;BME280;69433;48.642;9.142;2023-05-21T06:19:11;96579.66;;;23.13;41.63
80124;BME280;69433;48.642;9.142;2023-05-21T06:21:36;96581.22;;;23.11;41.82
80124;BME280;69433;48.642;9.142;2023-05-21T06:24:01;96578.53;;;23.11;41.76
80124;BME280;69433;48.642;9.142;2023-05-21T06:26:27;96577.88;;;23.07;42.02
80124;BME280;69433;48.642;9.142;2023-05-21T06:28:53;96578.72;;;23.04;41.88
80124;BME280;69433;48.642;9.142;2023-05-21T06:31:18;96577.66;;;22.98;42.11
80124;BME280;69433;48.642;9.142;2023-05-21T06:33:46;96579.13;;;23.02;42.02
80124;BME280;69433;48.642;9.142;2023-05-21T06:36:13;96584.47;;;23.02;42.19
80124;BME280;69433;48.642;9.142;2023-05-21T06:38:40;96575.00;;;22.98;42.30
80124;BME280;69433;48.642;9.142;2023-05-21T06:41:06;96584.28;;;22.93;42.73
80124;BME280;69433;48.642;9.142;2023-05-21T06:43:32;96581.25;;;22.91;42.62
80124;BME280;69433;48.642;9.142;2023-05-21T06:45:57;96576.19;;;22.97;42.60
80124;BME280;69433;48.642;9.142;2023-05-21T06:48:22;96576.50;;;22.99;42.39
80124;BME280;69433;48.642;9.142;2023-05-21T06:50:47;96580.97;;;23.05;42.47
80124;BME280;69433;48.642;9.142;2023-05-21T06:53:14;96583.16;;;23.10;42.48
80124;BME280;69433;48.642;9.142;2023-05-21T06:55:41;96572.38;;;23.14;42.27
80124;BME280;69433;48.642;9.142;2023-05-21T06:58:09;96583.00;;;23.17;42.34
80124;BME280;69433;48.642;9.142;2023-05-21T07:00:37;96579.50;;;23.20;42.02
80124;BME280;69433;48.642;9.142;2023-05-21T07:03:04;96582.09;;;23.24;42.21
80124;BME280;69433;48.642;9.142;2023-05-21T07:05:29;96587.38;;;23.27;42.05
80124;BME280;69433;48.642;9.142;2023-05-21T07:07:56;96590.41;;;23.29;42.16
80124;BME280;69433;48.642;9.142;2023-05-21T07:10:24;96589.97;;;23.31;42.24
80124;BME280;69433;48.642;9.142;2023-05-21T07:12:49;96586.31;;;23.25;42.61
80124;BME280;69433;48.642;9.142;2023-05-21T07:15:26;96580.31;;;23.17;42.93
80124;BME280;69433;48.642;9.142;2023-05-21T07:17:51;96588.88;;;23.12;43.23
80124;BME280;69433;48.642;9.142;2023-05-21T07:20:16;96586.59;;;23.11;43.40
80124;BME280;69433;48.642;9.142;2023-05-21T07:22:42;96580.88;;;23.09;43.29
80124;BME280;69433;48.642;9.142;2023-05-21T07:25:08;96583.84;;;23.14;43.21
80124;BME280;69433;48.642;9.142;2023-05-21T07:27:34;96582.59;;;23.19;43.18
80124;BME280;69433;48.642;9.142;2023-05-21T07:30:00;96587.47;;;23.24;43.27
80124;BME280;69433;48.642;9.142;2023-05-21T07:32:26;96581.25;;;23.27;43.06
80124;BME280;69433;48.642;9.142;2023-05-21T07:34:54;96577.31;;;23.31;43.12
80124;BME280;69433;48.642;9.142;2023-05-21T07:37:20;96578.03;;;23.36;43.08
80124;BME280;69433;48.642;9.142;2023-05-21T07:39:45;96575.25;;;23.39;42.84
80124;BME280;69433;48.642;9.142;2023-05-21T07:42:11;96580.13;;;23.44;42.81
80124;BME280;69433;48.642;9.142;2023-05-21T07:44:39;96568.91;;;23.49;42.85
80124;BME280;69433;48.642;9.142;2023-05-21T07:47:04;96570.00;;;23.52;42.81
80124;BME280;69433;48.642;9.142;2023-05-21T07:49:31;96574.94;;;23.53;42.68
80124;BME280;69433;48.642;9.142;2023-05-21T07:51:58;96572.59;;;23.55;42.51
80124;BME280;69433;48.642;9.142;2023-05-21T07:54:23;96577.88;;;23.59;42.58
80124;BME280;69433;48.642;9.142;2023-05-21T07:56:48;96575.88;;;23.63;42.39
80124;BME280;69433;48.642;9.142;2023-05-21T07:59:16;96577.38;;;23.64;42.46
80124;BME280;69433;48.642;9.142;2023-05-21T08:01:41;96582.66;;;23.67;42.45
80124;BME280;69433;48.642;9.142;2023-05-21T08:04:09;96573.44;;;23.68;42.16
80124;BME280;69433;48.642;9.142;2023-05-21T08:06:34;96571.09;;;23.71;42.33
80124;BME280;69433;48.642;9.142;2023-05-21T08:09:02;96572.59;;;23.72;42.43
80124;BME280;69433;48.642;9.142;2023-05-21T08:11:30;96563.69;;;23.75;42.25
80124;BME280;69433;48.642;9.142;2023-05-21T08:13:55;96571.75;;;23.75;42.12
80124;BME280;69433;48.642;9.142;2023-05-21T08:16:22;96567.88;;;23.76;41.96
80124;BME280;69433;48.642;9.142;2023-05-21T08:18:49;96561.34;;;23.77;41.97
80124;BME280;69433;48.642;9.142;2023-05-21T08:21:16;96567.06;;;23.79;41.91
80124;BME280;69433;48.642;9.142;2023-05-21T08:24:01;96571.59;;;23.82;42.15
80124;BME280;69433;48.642;9.142;2023-05-21T08:26:27;96570.84;;;23.81;42.09
80124;BME280;69433;48.642;9.142;2023-05-21T08:28:55;96573.84;;;23.83;42.03
80124;BME280;69433;48.642;9.142;2023-05-21T08:31:22;96573.09;;;23.83;42.14
80124;BME280;69433;48.642;9.142;2023-05-21T08:33:52;96574.94;;;23.86;41.85
80124;BME280;69433;48.642;9.142;2023-05-21T08:36:18;96573.75;;;23.87;42.13
80124;BME280;69433;48.642;9.142;2023-05-21T08:38:43;96579.47;;;23.89;42.24
80124;BME280;69433;48.642;9.142;2023-05-21T08:41:11;96585.94;;;23.91;41.87
80124;BME280;69433;48.642;9.142;2023-05-21T08:43:38;96574.44;;;23.91;41.77
80124;BME280;69433;48.642;9.142;2023-05-21T08:46:07;96578.19;;;23.93;41.61
80124;BME280;69433;48.642;9.142;2023-05-21T08:48:36;96568.97;;;23.94;41.86
80124;BME280;69433;48.642;9.142;2023-05-21T08:51:03;96566.28;;;23.94;42.15
80124;BME280;69433;48.642;9.142;2023-05-21T08:53:37;96566.59;;;23.96;42.09
80124;BME280;69433;48.642;9.142;2023-05-21T08:56:04;96565.00;;;23.99;42.00
80124;BME280;69433;48.642;9.142;2023-05-21T08:58:35;96572.25;;;24.02;41.71
80124;BME280;69433;48.642;9.142;2023-05-21T09:01:01;96568.34;;;24.03;42.09
80124;BME280;69433;48.642;9.142;2023-05-21T09:03:34;96573.31;;;24.04;41.62
80124;BME280;69433;48.642;9.142;2023-05-21T09:06:11;96576.00;;;24.04;41.83
80124;BME280;69433;48.642;9.142;2023-05-21T09:08:42;96572.47;;;24.08;41.96
80124;BME280;69433;48.642;9.142;2023-05-21T09:11:13;96578.94;;;24.10;41.93
80124;BME280;69433;48.642;9.142;2023-05-21T09:13:39;96573.16;;;24.12;41.48
80124;BME280;69433;48.642;9.142;2023-05-21T09:16:17;96580.75;;;24.13;41.71
80124;BME280;69433;48.642;9.142;2023-05-21T09:18:42;96578.81;;;24.14;41.48
80124;BME280;69433;48.642;9.142;2023-05-21T09:21:28;96583.78;;;24.15;41.54
80124;BME280;69433;48.642;9.142;2023-05-21T09:23:56;96574.22;;;24.14;41.53
80124;BME280;69433;48.642;9.142;2023-05-21T09:26:22;96574.53;;;24.16;41.73
80124;BME280;69433;48.642;9.142;2023-05-21T09:28:48;96569.94;;;24.17;41.75
80124;BME280;69433;48.642;9.142;2023-05-21T09:31:25;96582.53;;;24.20;41.61
80124;BME280;69433;48.642;9.142;2023-05-21T09:33:51;96585.22;;;24.20;41.53
80124;BME280;69433;48.642;9.142;2023-05-21T09:36:18;96589.00;;;24.22;41.77
80124;BME280;69433;48.642;9.142;2023-05-21T09:38:49;96578.56;;;24.24;41.63
80124;BME280;69433;48.642;9.142;2023-05-21T09:41:30;96583.19;;;24.24;41.66
80124;BME280;69433;48.642;9.142;2023-05-21T09:44:00;96585.47;;;24.25;41.60
80124;BME280;69433;48.642;9.142;2023-05-21T09:46:39;96584.72;;;24.25;41.67
80124;BME280;69433;48.642;9.142;2023-05-21T09:49:06;96581.19;;;24.28;41.45
80124;BME280;69433;48.642;9.142;2023-05-21T09:51:31;96578.06;;;24.29;41.63
80124;BME280;69433;48.642;9.142;2023-05-21T09:53:57;96590.66;;;24.32;41.73
80124;BME280;69433;48.642;9.142;2023-05-21T09:56:26;96587.31;;;24.28;41.76
80124;BME280;69433;48.642;9.142;2023-05-21T09:58:54;96579.91;;;24.32;41.71
80124;BME280;69433;48.642;9.142;2023-05-21T10:01:29;96585.94;;;24.36;41.51
80124;BME280;69433;48.642;9.142;2023-05-21T10:03:56;96585.53;;;24.38;41.53
80124;BME280;69433;48.642;9.142;2023-05-21T10:06:25;96586.50;;;24.44;41.40
80124;BME280;69433;48.642;9.142;2023-05-21T10:08:52;96586.41;;;24.48;41.70
80124;BME280;69433;48.642;9.142;2023-05-21T10:11:21;96586.75;;;24.50;41.59
80124;BME280;69433;48.642;9.142;2023-05-21T10:13:54;96591.25;;;24.53;41.28
80124;BME280;69433;48.642;9.142;2023-05-21T10:16:21;96584.72;;;24.54;41.45
80124;BME280;69433;48.642;9.142;2023-05-21T10:18:48;96584.28;;;24.55;41.12
80124;BME280;69433;48.642;9.142;2023-05-21T10:21:14;96578.16;;;24.55;41.39
80124;BME280;69433;48.642;9.142;2023-05-21T10:23:41;96588.47;;;24.56;41.03
80124;BME280;69433;48.642;9.142;2023-05-21T10:26:14;96583.03;;;24.60;41.37
80124;BME280;69433;48.642;9.142;2023-05-21T10:28:40;96577.19;;;24.61;40.89
80124;BME280;69433;48.642;9.142;2023-05-21T10:31:06;96580.97;;;24.64;41.09
80124;BME280;69433;48.642;9.142;2023-05-21T10:33:34;96583.25;;;24.65;41.29
80124;BME280;69433;48.642;9.142;2023-05-21T10:36:00;96580.88;;;24.67;41.33
80124;BME280;69433;48.642;9.142;2023-05-21T10:38:26;96574.34;;;24.68;41.11
80124;BME280;69433;48.642;9.142;2023-05-21T10:40:54;96577.03;;;24.68;41.02
80124;BME280;69433;48.642;9.142;2023-05-21T10:46:39;96576.28;;;24.68;41.09
80124;BME280;69433;48.642;9.142;2023-05-21T10:49:34;96576.28;;;24.68;40.77
80124;BME280;69433;48.642;9.142;2023-05-21T10:55:15;96572.41;;;24.69;40.69
80124;BME280;69433;48.642;9.142;2023-05-21T10:57:55;96575.50;;;24.67;40.79
80124;BME280;69433;48.642;9.142;2023-05-21T11:00:27;96571.66;;;24.68;40.82
80124;BME280;69433;48.642;9.142;2023-05-21T11:02:52;96574.22;;;24.72;40.79
80124;BME280;69433;48.642;9.142;2023-05-21T11:05:57;96571.94;;;24.70;40.69
80124;BME280;69433;48.642;9.142;2023-05-21T11:08:25;96566.28;;;24.68;40.99
80124;BME280;69433;48.642;9.142;2023-05-21T11:11:01;96575.41;;;24.71;40.80
80124;BME280;69433;48.642;9.142;2023-05-21T11:13:28;96573.03;;;24.73;40.62
80124;BME280;69433;48.642;9.142;2023-05-21T11:16:13;96565.31;;;24.75;40.52
80124;BME280;69433;48.642;9.142;2023-05-21T11:24:01;96571.44;;;24.75;40.42
80124;BME280;69433;48.642;9.142;2023-05-21T11:27:01;96578.00;;;24.74;40.57
80124;BME280;69433;48.642;9.142;2023-05-21T11:29:36;96576.06;;;24.75;40.48
80124;BME280;69433;48.642;9.142;2023-05-21T11:32:05;96577.56;;;24.76;40.70
80124;BME280;69433;48.642;9.142;2023-05-21T11:34:44;96570.25;;;24.76;40.35
80124;BME280;69433;48.642;9.142;2023-05-21T11:39:52;96574.34;;;24.81;40.61
80124;BME280;69433;48.642;9.142;2023-05-21T11:42:27;96576.28;;;24.81;40.51
80124;BME280;69433;48.642;9.142;2023-05-21T11:44:55;96568.66;;;24.79;40.66
80124;BME280;69433;48.642;9.142;2023-05-21T11:47:22;96572.84;;;24.80;40.34
80124;BME280;69433;48.642;9.142;2023-05-21T11:49:48;96574.34;;;24.81;40.22
80124;BME280;69433;48.642;9.142;2023-05-21T11:52:13;96574.34;;;24.81;40.32
80124;BME280;69433;48.642;9.142;2023-05-21T11:54:43;96573.16;;;24.82;40.44
80124;BME280;69433;48.642;9.142;2023-05-21T11:57:11;96578.22;;;24.80;40.58
80124;BME280;69433;48.642;9.142;2023-05-21T11:59:38;96578.22;;;24.80;40.55
80124;BME280;69433;48.642;9.142;2023-05-21T12:02:07;96578.88;;;24.84;40.31
80124;BME280;69433;48.642;9.142;2023-05-21T12:04:34;96581.56;;;24.84;40.24
80124;BME280;69433;48.642;9.142;2023-05-21T12:07:03;96576.19;;;24.84;40.55
80124;BME280;69433;48.642;9.142;2023-05-21T12:09:40;96568.13;;;24.84;40.33
80124;BME280;69433;48.642;9.142;2023-05-21T12:12:10;96572.00;;;24.83;40.33
80124;BME280;69433;48.642;9.142;2023-05-21T12:14:50;96573.50;;;24.84;40.54
80124;BME280;69433;48.642;9.142;2023-05-21T12:17:17;96581.13;;;24.86;40.76
80124;BME280;69433;48.642;9.142;2023-05-21T12:19:43;96572.31;;;24.85;40.91
80124;BME280;69433;48.642;9.142;2023-05-21T12:22:11;96568.13;;;24.84;40.53
80124;BME280;69433;48.642;9.142;2023-05-21T12:24:37;96575.84;;;24.82;40.46
80124;BME280;69433;48.642;9.142;2023-05-21T12:27:06;96575.44;;;24.84;40.70
80124;BME280;69433;48.642;9.142;2023-05-21T12:29:35;96579.72;;;24.81;40.48
80124;BME280;69433;48.642;9.142;2023-05-21T12:32:03;96575.84;;;24.82;40.84
80124;BME280;69433;48.642;9.142;2023-05-21T12:34:50;96575.44;;;24.84;40.69
80124;BME280;69433;48.642;9.142;2023-05-21T12:37:27;96578.53;;;24.82;41.09
80124;BME280;69433;48.642;9.142;2023-05-21T12:39:58;96577.47;;;24.80;41.05
80124;BME280;69433;48.642;9.142;2023-05-21T12:42:32;96579.28;;;24.83;41.17
80124;BME280;69433;48.642;9.142;2023-05-21T12:44:59;96580.06;;;24.83;40.76
80124;BME280;69433;48.642;9.142;2023-05-21T12:47:29;96582.41;;;24.81;40.84
80124;BME280;69433;48.642;9.142;2023-05-21T12:49:59;96585.09;;;24.81;40.99
80124;BME280;69433;48.642;9.142;2023-05-21T12:52:25;96580.47;;;24.82;41.22
80124;BME280;69433;48.642;9.142;2023-05-21T12:54:56;96589.63;;;24.84;41.17
80124;BME280;69433;48.642;9.142;2023-05-21T12:57:35;96583.50;;;24.84;41.15
80124;BME280;69433;48.642;9.142;2023-05-21T13:00:04;96588.44;;;24.85;41.07
80124;BME280;69433;48.642;9.142;2023-05-21T13:02:40;96586.94;;;24.84;41.07
80124;BME280;69433;48.642;9.142;2023-05-21T13:05:10;96586.59;;;24.82;40.72
80124;BME280;69433;48.642;9.142;2023-05-21T13:07:39;96592.31;;;24.84;41.26
80124;BME280;69433;48.642;9.142;2023-05-21T13:10:05;96580.47;;;24.82;40.99
80124;BME280;69433;48.642;9.142;2023-05-21T13:12:32;96583.59;;;24.80;41.16
80124;BME280;69433;48.642;9.142;2023-05-21T13:14:59;96582.84;;;24.80;41.26
80124;BME280;69433;48.642;9.142;2023-05-21T13:17:25;96580.16;;;24.80;40.91
80124;BME280;69433;48.642;9.142;2023-05-21T13:20:11;96574.03;;;24.79;41.06